createdAt,value
2022-09-12T00:01:20.148Z,16.82
2022-09-12T00:03:51.323Z,16.83
2022-09-12T00:06:23.217Z,16.85
2022-09-12T00:08:54.238Z,16.87
2022-09-12T00:11:22.616Z,16.91
2022-09-12T00:13:51.203Z,16.95
2022-09-12T00:16:21.391Z,16.98
2022-09-12T00:18:49.910Z,17.02
2022-09-12T00:21:18.902Z,17.07
2022-09-12T00:23:47.589Z,17.10
2022-09-12T00:26:17.506Z,17.14
2022-09-12T00:28:46.268Z,17.17
2022-09-12T00:31:16.306Z,17.18
2022-09-12T00:33:45.106Z,17.21
2022-09-12T00:36:15.157Z,17.24
2022-09-12T00:38:44.173Z,17.28
2022-09-12T00:41:17.208Z,17.31
2022-09-12T00:43:51.823Z,17.30
2022-09-12T00:46:26.153Z,17.25
2022-09-12T00:49:13.781Z,17.23
2022-09-12T00:51:44.608Z,17.22
2022-09-12T00:54:14.218Z,17.23
2022-09-12T00:56:44.431Z,17.22
2022-09-12T00:59:15.805Z,17.20
2022-09-12T01:01:45.380Z,17.19
2022-09-12T01:04:14.198Z,17.18
2022-09-12T01:06:44.117Z,17.17
2022-09-12T01:09:15.363Z,17.11
2022-09-12T01:11:47.326Z,17.03
2022-09-12T01:14:17.145Z,16.94
2022-09-12T01:16:46.085Z,16.89
2022-09-12T01:19:43.390Z,16.87
2022-09-12T01:22:29.932Z,16.81
2022-09-12T01:25:04.729Z,16.73
2022-09-12T01:27:33.121Z,16.64
2022-09-12T01:30:13.979Z,16.59
2022-09-12T01:32:57.657Z,16.57
2022-09-12T01:35:46.376Z,16.57
2022-09-12T01:38:29.910Z,16.57
2022-09-12T01:40:58.290Z,16.56
2022-09-12T01:43:42.480Z,16.54
2022-09-12T01:46:19.729Z,16.49
2022-09-12T01:48:50.976Z,16.41
2022-09-12T01:51:23.248Z,16.33
2022-09-12T01:53:55.874Z,16.26
2022-09-12T01:56:29.328Z,16.24
2022-09-12T01:59:00.584Z,16.24
2022-09-12T02:01:31.500Z,16.25
2022-09-12T02:04:05.949Z,16.26
2022-09-12T02:06:37.900Z,16.28
2022-09-12T02:09:11.909Z,16.25
2022-09-12T02:11:43.260Z,16.20
2022-09-12T02:14:19.114Z,16.17
2022-09-12T02:17:07.872Z,16.18
2022-09-12T02:19:57.142Z,16.19
2022-09-12T02:22:27.439Z,16.17
2022-09-12T02:25:00.457Z,16.15
2022-09-12T02:27:49.030Z,16.12
2022-09-12T02:30:19.577Z,16.04
2022-09-12T02:32:47.919Z,15.95
2022-09-12T02:35:35.932Z,15.86
2022-09-12T02:38:13.659Z,15.79
2022-09-12T02:40:42.346Z,15.75
2022-09-12T02:43:10.827Z,15.74
2022-09-12T02:45:39.135Z,15.73
2022-09-12T02:48:14.243Z,15.68
2022-09-12T02:50:43.237Z,15.65
2022-09-12T02:53:11.544Z,15.61
2022-09-12T02:55:41.021Z,15.55
2022-09-12T02:58:12.074Z,15.43
2022-09-12T03:00:55.952Z,15.30
2022-09-12T03:03:44.564Z,15.22
2022-09-12T03:06:22.096Z,15.20
2022-09-12T03:09:09.483Z,15.16
2022-09-12T03:11:43.936Z,15.13
2022-09-12T03:14:22.408Z,15.11
2022-09-12T03:16:56.945Z,15.10
2022-09-12T03:19:44.826Z,15.09
2022-09-12T03:22:20.532Z,15.06
2022-09-12T03:24:55.057Z,15.03
2022-09-12T03:27:32.552Z,15.00
2022-09-12T03:30:01.339Z,14.96
2022-09-12T03:32:49.585Z,14.92
2022-09-12T03:35:22.848Z,14.88
2022-09-12T03:37:52.563Z,14.87
2022-09-12T03:40:21.281Z,14.88
2022-09-12T03:42:49.543Z,14.87
2022-09-12T03:45:17.960Z,14.86
2022-09-12T03:47:46.623Z,14.82
2022-09-12T03:50:14.801Z,14.78
2022-09-12T03:52:43.179Z,14.74
2022-09-12T03:55:12.582Z,14.70
2022-09-12T03:57:40.858Z,14.68
2022-09-12T04:00:09.536Z,14.68
2022-09-12T04:02:47.144Z,14.68
2022-09-12T04:05:15.629Z,14.70
2022-09-12T04:07:43.903Z,14.73
2022-09-12T04:10:12.490Z,14.75
2022-09-12T04:12:41.277Z,14.78
2022-09-12T04:15:10.408Z,14.79
2022-09-12T04:17:38.963Z,14.83
2022-09-12T04:20:07.937Z,14.85
2022-09-12T04:22:36.230Z,14.88
2022-09-12T04:25:05.122Z,14.91
2022-09-12T04:27:33.602Z,14.92
2022-09-12T04:30:02.701Z,14.94
2022-09-12T04:32:31.544Z,14.96
2022-09-12T04:35:00.179Z,14.98
2022-09-12T04:37:28.455Z,15.00
2022-09-12T04:39:58.277Z,15.02
2022-09-12T04:42:26.958Z,15.00
2022-09-12T04:44:55.230Z,14.99
2022-09-12T04:47:23.624Z,15.00
2022-09-12T04:49:52.888Z,15.02
2022-09-12T04:52:22.009Z,15.09
2022-09-12T04:54:51.004Z,15.19
2022-09-12T04:57:19.898Z,15.31
2022-09-12T04:59:48.071Z,15.42
2022-09-12T05:02:16.674Z,15.48
2022-09-12T05:04:47.185Z,15.52
2022-09-12T05:07:15.770Z,15.57
2022-09-12T05:09:44.152Z,15.63
2022-09-12T05:12:12.636Z,15.67
2022-09-12T05:14:41.116Z,15.72
2022-09-12T05:17:09.391Z,15.78
2022-09-12T05:19:37.922Z,15.81
2022-09-12T05:22:07.199Z,15.83
2022-09-12T05:24:35.658Z,15.86
2022-09-12T05:27:05.093Z,15.86
2022-09-12T05:29:34.575Z,15.87
2022-09-12T05:32:03.256Z,15.92
2022-09-12T05:34:31.634Z,16.13
2022-09-12T05:37:00.018Z,16.38
2022-09-12T05:39:28.445Z,16.64
2022-09-12T05:41:57.083Z,16.88
2022-09-12T05:44:25.564Z,17.09
2022-09-12T05:46:54.149Z,17.31
2022-09-12T05:49:22.939Z,17.57
2022-09-12T05:51:52.036Z,17.82
2022-09-12T05:54:20.832Z,18.07
2022-09-12T05:56:49.485Z,18.35
2022-09-12T05:59:19.363Z,18.64
2022-09-12T06:01:48.892Z,18.94
2022-09-12T06:04:18.236Z,19.25
2022-09-12T06:06:47.238Z,19.52
2022-09-12T06:09:16.433Z,19.76
2022-09-12T06:11:46.245Z,20.03
2022-09-12T06:14:17.988Z,20.30
2022-09-12T06:16:47.727Z,20.51
2022-09-12T06:19:20.720Z,20.71
2022-09-12T06:21:50.210Z,20.95
2022-09-12T06:24:19.398Z,21.15
2022-09-12T06:26:48.997Z,21.30
2022-09-12T06:29:17.501Z,21.51
2022-09-12T06:31:46.189Z,21.76
2022-09-12T06:34:15.268Z,22.02
2022-09-12T06:36:45.558Z,22.23
2022-09-12T06:39:16.555Z,22.41
2022-09-12T06:41:45.372Z,22.46
2022-09-12T06:44:15.791Z,22.54
2022-09-12T06:46:44.809Z,22.56
2022-09-12T06:49:13.351Z,22.64
2022-09-12T06:51:44.808Z,22.85
2022-09-12T06:54:14.475Z,23.08
2022-09-12T06:56:43.200Z,23.35
2022-09-12T06:59:11.493Z,23.57
2022-09-12T07:01:41.393Z,23.78
2022-09-12T07:04:10.288Z,23.90
2022-09-12T07:06:40.206Z,24.02
2022-09-12T07:09:11.039Z,24.19
2022-09-12T07:11:40.762Z,24.43
2022-09-12T07:14:10.465Z,24.70
2022-09-12T07:16:38.887Z,24.91
2022-09-12T07:19:08.485Z,25.09
2022-09-12T07:21:40.868Z,25.32
2022-09-12T07:24:10.564Z,25.51
2022-09-12T07:26:40.868Z,25.59
2022-09-12T07:29:35.377Z,25.57
2022-09-12T07:32:02.714Z,25.52
2022-09-12T07:34:31.401Z,25.62
2022-09-12T07:36:59.986Z,25.84
2022-09-12T07:39:28.368Z,26.05
2022-09-12T07:41:57.773Z,26.32
2022-09-12T07:44:27.177Z,26.45
2022-09-12T07:46:55.660Z,26.55
2022-09-12T07:49:24.653Z,26.77
2022-09-12T07:51:53.662Z,27.03
2022-09-12T07:54:22.283Z,27.34
2022-09-12T07:56:50.617Z,27.62
2022-09-12T07:59:41.402Z,27.79
2022-09-12T08:02:14.694Z,27.75
2022-09-12T08:04:45.177Z,27.60
2022-09-12T08:07:15.060Z,27.58
2022-09-12T08:09:43.550Z,27.66
2022-09-12T08:12:11.819Z,27.72
2022-09-12T08:14:40.201Z,27.79
2022-09-12T08:17:08.685Z,27.94
2022-09-12T08:19:36.961Z,28.02
2022-09-12T08:22:06.061Z,27.80
2022-09-12T08:24:34.439Z,27.47
2022-09-12T08:27:02.920Z,27.32
2022-09-12T08:29:32.112Z,27.30
2022-09-12T08:32:00.312Z,27.35
2022-09-12T08:34:28.983Z,27.54
2022-09-12T08:36:57.898Z,27.71
2022-09-12T08:39:26.461Z,28.07
2022-09-12T08:42:03.326Z,28.46
2022-09-12T08:44:51.895Z,28.79
2022-09-12T08:47:21.400Z,29.08
2022-09-12T08:50:05.151Z,29.13
2022-09-12T08:52:39.819Z,28.90
2022-09-12T08:55:20.126Z,28.68
2022-09-12T08:57:48.818Z,28.35
2022-09-12T09:00:17.580Z,28.00
2022-09-12T09:02:46.356Z,28.05
2022-09-12T09:05:30.241Z,28.32
2022-09-12T09:08:01.591Z,28.73
2022-09-12T09:10:56.289Z,28.68
2022-09-12T09:14:06.447Z,28.50
2022-09-12T09:16:36.877Z,27.93
2022-09-12T09:19:17.852Z,27.50
2022-09-12T09:21:51.968Z,27.24
2022-09-12T09:24:22.939Z,27.43
2022-09-12T09:27:23.621Z,27.61
2022-09-12T09:29:56.528Z,28.01
2022-09-12T09:32:41.297Z,28.25
2022-09-12T09:35:22.989Z,28.40
2022-09-12T09:37:59.462Z,27.89
2022-09-12T09:40:34.478Z,27.37
2022-09-12T09:43:18.781Z,26.93
2022-09-12T09:45:48.026Z,26.56
2022-09-12T09:48:32.002Z,26.96
2022-09-12T09:51:02.207Z,27.48
2022-09-12T09:53:52.111Z,27.56
2022-09-12T09:56:40.496Z,27.96
2022-09-12T09:59:28.597Z,28.38
2022-09-12T10:01:58.381Z,28.32
2022-09-12T10:04:41.527Z,27.93
2022-09-12T10:07:19.303Z,27.70
2022-09-12T10:10:07.997Z,27.55
2022-09-12T10:12:36.579Z,27.58
2022-09-12T10:15:18.477Z,27.51
2022-09-12T10:17:48.632Z,27.33
2022-09-12T10:20:31.417Z,27.11
2022-09-12T10:23:01.336Z,27.24
2022-09-12T10:25:29.815Z,27.65
2022-09-12T10:28:00.226Z,28.15
2022-09-12T10:30:29.106Z,28.52
2022-09-12T10:33:00.052Z,28.75
2022-09-12T10:35:31.504Z,28.88
2022-09-12T10:38:02.947Z,29.07
2022-09-12T10:40:40.679Z,29.25
2022-09-12T10:43:24.628Z,29.11
2022-09-12T10:45:57.038Z,29.17
2022-09-12T10:48:25.484Z,29.43
2022-09-12T10:50:53.759Z,29.64
2022-09-12T10:53:23.882Z,29.86
2022-09-12T10:56:07.726Z,29.97
2022-09-12T10:58:45.219Z,29.71
2022-09-12T11:01:19.510Z,29.55
2022-09-12T11:03:54.049Z,29.62
2022-09-12T11:06:28.285Z,29.73
2022-09-12T11:09:03.625Z,29.95
2022-09-12T11:11:36.055Z,29.93
2022-09-12T11:14:04.686Z,29.74
2022-09-12T11:16:41.055Z,29.66
2022-09-12T11:19:11.251Z,29.28
2022-09-12T11:21:58.191Z,29.25
2022-09-12T11:24:26.744Z,29.14
2022-09-12T11:26:57.823Z,29.24
2022-09-12T11:29:25.995Z,29.67
2022-09-12T11:31:54.376Z,30.01
2022-09-12T11:34:42.828Z,30.34
2022-09-12T11:37:23.291Z,30.75
2022-09-12T11:39:55.537Z,30.68
2022-09-12T11:42:29.988Z,30.15
2022-09-12T11:45:10.041Z,29.36
2022-09-12T11:47:39.750Z,28.93
2022-09-12T11:50:16.219Z,28.73
2022-09-12T11:52:45.011Z,28.60
2022-09-12T11:55:18.102Z,28.62
2022-09-12T11:57:46.480Z,28.62
2022-09-12T12:00:18.138Z,28.78
2022-09-12T12:02:56.044Z,28.93
2022-09-12T12:05:43.572Z,29.16
2022-09-12T12:08:12.567Z,29.69
2022-09-12T12:10:42.863Z,30.10
2022-09-12T12:13:28.784Z,30.51
2022-09-12T12:15:59.741Z,30.86
2022-09-12T12:18:29.642Z,31.01
2022-09-12T12:21:18.704Z,31.02
2022-09-12T12:24:05.626Z,31.02
2022-09-12T12:26:40.604Z,30.76
2022-09-12T12:29:09.736Z,30.49
2022-09-12T12:31:56.773Z,30.16
2022-09-12T12:34:28.124Z,29.47
2022-09-12T12:36:56.913Z,28.84
2022-09-12T12:39:34.610Z,28.00
2022-09-12T12:42:03.835Z,27.24
2022-09-12T12:44:44.469Z,26.69
2022-09-12T12:47:16.033Z,26.17
2022-09-12T12:49:50.354Z,25.82
2022-09-12T12:52:19.819Z,25.60
2022-09-12T12:54:50.901Z,25.47
2022-09-12T12:57:23.151Z,25.47
2022-09-12T12:59:57.085Z,25.46
2022-09-12T13:02:41.942Z,25.42
2022-09-12T13:05:20.265Z,25.37
2022-09-12T13:07:55.032Z,25.32
2022-09-12T13:10:25.069Z,25.25
2022-09-12T13:12:53.762Z,25.20
2022-09-12T13:15:36.003Z,25.19
2022-09-12T13:18:06.743Z,25.31
2022-09-12T13:20:38.708Z,25.74
2022-09-12T13:23:21.420Z,26.00
2022-09-12T13:25:54.101Z,26.48
2022-09-12T13:28:23.916Z,27.36
2022-09-12T13:30:59.015Z,28.35
2022-09-12T13:33:33.885Z,29.35
2022-09-12T13:36:12.406Z,30.24
2022-09-12T13:38:51.946Z,31.07
2022-09-12T13:41:23.195Z,31.85
2022-09-12T13:43:52.086Z,32.22
2022-09-12T13:46:31.960Z,31.78
2022-09-12T13:49:01.686Z,30.93
2022-09-12T13:51:32.510Z,30.09
2022-09-12T13:54:03.835Z,29.40
2022-09-12T13:56:32.419Z,28.65
2022-09-12T13:59:02.930Z,27.96
2022-09-12T14:01:39.815Z,27.37
2022-09-12T14:04:34.426Z,26.84
2022-09-12T14:07:11.600Z,26.43
2022-09-12T14:09:41.528Z,26.20
2022-09-12T14:12:43.804Z,26.02
2022-09-12T14:15:17.713Z,26.61
2022-09-12T14:17:52.012Z,27.78
2022-09-12T14:20:22.771Z,28.71
2022-09-12T14:22:51.966Z,29.21
2022-09-12T14:25:22.193Z,29.65
2022-09-12T14:27:55.468Z,29.65
2022-09-12T14:30:28.680Z,29.98
2022-09-12T14:33:12.628Z,30.14
2022-09-12T14:35:46.023Z,29.85
2022-09-12T14:38:14.915Z,30.24
2022-09-12T14:40:51.486Z,30.05
2022-09-12T14:43:30.214Z,29.56
2022-09-12T14:46:00.104Z,29.07
2022-09-12T14:48:30.720Z,28.92
2022-09-12T14:50:59.561Z,29.37
2022-09-12T14:53:30.899Z,29.64
2022-09-12T14:56:05.614Z,30.45
2022-09-12T14:58:34.111Z,31.31
2022-09-12T15:01:09.021Z,31.99
2022-09-12T15:03:58.021Z,32.42
2022-09-12T15:06:26.799Z,31.75
2022-09-12T15:08:57.047Z,31.19
2022-09-12T15:11:25.605Z,31.12
2022-09-12T15:13:54.395Z,30.99
2022-09-12T15:16:22.817Z,30.43
2022-09-12T15:18:51.361Z,30.43
2022-09-12T15:21:20.565Z,30.72
2022-09-12T15:23:50.580Z,31.06
2022-09-12T15:26:20.391Z,31.44
2022-09-12T15:28:50.512Z,31.35
2022-09-12T15:31:26.414Z,31.38
2022-09-12T15:33:55.569Z,30.78
2022-09-12T15:36:25.177Z,30.09
2022-09-12T15:38:53.967Z,29.58
2022-09-12T15:41:24.188Z,29.51
2022-09-12T15:43:52.777Z,28.98
2022-09-12T15:46:21.405Z,28.33
2022-09-12T15:48:50.642Z,27.68
2022-09-12T15:51:20.688Z,27.12
2022-09-12T15:53:49.797Z,26.68
2022-09-12T15:56:19.586Z,26.26
2022-09-12T15:58:58.343Z,25.94
2022-09-12T16:01:28.896Z,25.67
2022-09-12T16:03:57.737Z,25.44
2022-09-12T16:06:28.166Z,25.21
2022-09-12T16:08:57.365Z,24.94
2022-09-12T16:11:26.768Z,24.68
2022-09-12T16:13:56.275Z,24.42
2022-09-12T16:16:24.848Z,24.15
2022-09-12T16:18:53.549Z,23.87
2022-09-12T16:21:22.032Z,23.62
2022-09-12T16:23:51.130Z,23.40
2022-09-12T16:26:19.711Z,23.20
2022-09-12T16:28:48.280Z,23.02
2022-09-12T16:31:17.039Z,22.83
2022-09-12T16:33:45.468Z,22.64
2022-09-12T16:36:15.184Z,22.47
2022-09-12T16:38:48.107Z,22.30
2022-09-12T16:41:17.265Z,22.10
2022-09-12T16:43:45.950Z,21.92
2022-09-12T16:46:16.519Z,21.76
2022-09-12T16:48:51.156Z,21.59
2022-09-12T16:51:22.040Z,21.43
2022-09-12T16:53:50.947Z,21.27
2022-09-12T16:56:19.319Z,21.12
2022-09-12T16:58:48.317Z,20.96
2022-09-12T17:01:24.324Z,20.83
2022-09-12T17:03:53.965Z,20.70
2022-09-12T17:06:22.670Z,20.57
2022-09-12T17:08:52.490Z,20.44
2022-09-12T17:11:22.398Z,20.32
2022-09-12T17:14:04.301Z,20.20
2022-09-12T17:16:38.598Z,20.06
2022-09-12T17:19:07.304Z,19.91
2022-09-12T17:21:35.788Z,19.77
2022-09-12T17:24:04.679Z,19.64
2022-09-12T17:26:33.369Z,19.49
2022-09-12T17:29:01.950Z,19.40
2022-09-12T17:31:30.781Z,19.26
2022-09-12T17:33:59.890Z,19.15
2022-09-12T17:36:29.239Z,19.04
2022-09-12T17:38:58.136Z,18.95
2022-09-12T17:41:28.252Z,18.85
2022-09-12T17:43:57.459Z,18.76
2022-09-12T17:46:31.553Z,18.67
2022-09-12T17:49:01.254Z,18.60
2022-09-12T17:51:31.502Z,18.54
2022-09-12T17:54:05.324Z,18.48
2022-09-12T17:56:34.921Z,18.42
2022-09-12T17:59:05.327Z,18.37
2022-09-12T18:01:52.327Z,18.33
2022-09-12T18:04:21.255Z,18.29
2022-09-12T18:06:49.943Z,18.26
2022-09-12T18:09:20.050Z,18.23
2022-09-12T18:11:49.473Z,18.20
2022-09-12T18:14:18.664Z,18.17
2022-09-12T18:16:48.049Z,18.14
2022-09-12T18:19:21.060Z,18.10
2022-09-12T18:21:50.322Z,18.06
2022-09-12T18:24:18.949Z,18.01
2022-09-12T18:26:47.427Z,17.96
2022-09-12T18:29:17.345Z,17.90
2022-09-12T18:31:47.055Z,17.83
2022-09-12T18:34:55.275Z,17.76
2022-09-12T18:38:03.356Z,17.64
2022-09-12T18:40:31.657Z,17.55
2022-09-12T18:43:00.601Z,17.47
2022-09-12T18:45:28.878Z,17.40
2022-09-12T18:47:58.233Z,17.33
2022-09-12T18:51:06.527Z,17.27
2022-09-12T18:54:14.634Z,17.22
2022-09-12T18:56:44.251Z,17.18
2022-09-12T18:59:14.350Z,17.15
2022-09-12T19:01:43.689Z,17.13
2022-09-12T19:04:12.992Z,17.11
2022-09-12T19:06:42.963Z,17.08
2022-09-12T19:09:12.825Z,17.04
2022-09-12T19:11:48.757Z,17.00
2022-09-12T19:14:18.801Z,16.97
2022-09-12T19:16:47.253Z,16.94
2022-09-12T19:19:15.663Z,16.92
2022-09-12T19:21:44.439Z,16.90
2022-09-12T19:24:14.617Z,16.88
2022-09-12T19:26:43.364Z,16.86
2022-09-12T19:29:12.145Z,16.83
2022-09-12T19:31:40.841Z,16.80
2022-09-12T19:34:10.769Z,16.76
2022-09-12T19:36:47.561Z,16.72
2022-09-12T19:39:17.834Z,16.68
2022-09-12T19:41:47.263Z,16.64
2022-09-12T19:44:15.748Z,16.60
2022-09-12T19:46:44.190Z,16.56
2022-09-12T19:49:13.374Z,16.52
2022-09-12T19:51:41.801Z,16.48
2022-09-12T19:54:10.187Z,16.43
2022-09-12T19:56:38.872Z,16.41
2022-09-12T19:59:07.150Z,16.40
2022-09-12T20:01:37.335Z,16.39
2022-09-12T20:04:07.186Z,16.36
2022-09-12T20:06:37.020Z,16.32
2022-09-12T20:09:05.483Z,16.27
2022-09-12T20:11:34.578Z,16.21
2022-09-12T20:14:03.266Z,16.13
2022-09-12T20:16:33.745Z,16.07
2022-09-12T20:19:06.683Z,16.03
2022-09-12T20:21:36.271Z,15.99
2022-09-12T20:24:10.395Z,15.98
2022-09-12T20:26:39.954Z,15.93
2022-09-12T20:29:08.598Z,15.87
2022-09-12T20:31:38.055Z,15.82
2022-09-12T20:34:07.610Z,15.76
2022-09-12T20:36:35.886Z,15.70
2022-09-12T20:39:04.683Z,15.62
2022-09-12T20:41:34.649Z,15.55
2022-09-12T20:44:03.280Z,15.51
2022-09-12T20:46:31.776Z,15.47
2022-09-12T20:49:00.349Z,15.42
2022-09-12T20:51:30.575Z,15.38
2022-09-12T20:54:13.287Z,15.31
2022-09-12T20:56:41.940Z,15.25
2022-09-12T20:59:12.100Z,15.21
2022-09-12T21:01:40.631Z,15.16
2022-09-12T21:04:11.851Z,15.12
2022-09-12T21:06:43.481Z,15.08
2022-09-12T21:09:12.166Z,15.05
2022-09-12T21:11:40.646Z,15.03
2022-09-12T21:14:09.067Z,14.98
2022-09-12T21:16:38.947Z,14.95
2022-09-12T21:19:07.222Z,14.91
2022-09-12T21:21:35.779Z,14.86
2022-09-12T21:24:04.700Z,14.82
2022-09-12T21:26:33.183Z,14.77
2022-09-12T21:29:02.073Z,14.74
2022-09-12T21:31:30.768Z,14.70
2022-09-12T21:33:59.140Z,14.67
2022-09-12T21:36:27.724Z,14.66
2022-09-12T21:38:57.743Z,14.66
2022-09-12T21:41:26.020Z,14.67
2022-09-12T21:43:54.400Z,14.66
2022-09-12T21:46:22.944Z,14.65
2022-09-12T21:48:51.466Z,14.61
2022-09-12T21:51:19.951Z,14.59
2022-09-12T21:53:48.327Z,14.55
2022-09-12T21:56:16.806Z,14.51
2022-09-12T21:58:45.498Z,14.48
2022-09-12T22:01:13.738Z,14.45
2022-09-12T22:03:43.383Z,14.41
2022-09-12T22:06:12.275Z,14.38
2022-09-12T22:08:40.653Z,14.36
2022-09-12T22:11:09.868Z,14.35
2022-09-12T22:13:39.625Z,14.33
2022-09-12T22:16:08.038Z,14.29
2022-09-12T22:18:37.249Z,14.27
2022-09-12T22:21:07.445Z,14.25
2022-09-12T22:23:54.691Z,14.22
2022-09-12T22:26:23.769Z,14.18
2022-09-12T22:28:52.271Z,14.15
2022-09-12T22:31:21.314Z,14.11
2022-09-12T22:33:51.156Z,14.07
2022-09-12T22:36:19.764Z,14.05
2022-09-12T22:38:48.297Z,14.02
2022-09-12T22:41:16.833Z,13.99
2022-09-12T22:43:45.620Z,13.95
2022-09-12T22:46:13.916Z,13.91
2022-09-12T22:48:43.199Z,13.89
2022-09-12T22:51:11.787Z,13.85
2022-09-12T22:53:40.267Z,13.80
2022-09-12T22:56:09.263Z,13.74
2022-09-12T22:58:38.156Z,13.68
2022-09-12T23:01:06.831Z,13.61
2022-09-12T23:03:37.494Z,13.55
2022-09-12T23:06:06.261Z,13.47
2022-09-12T23:08:36.262Z,13.39
2022-09-12T23:11:15.486Z,13.32
2022-09-12T23:13:45.122Z,13.26
2022-09-12T23:16:18.038Z,13.22
2022-09-12T23:18:47.113Z,13.19
2022-09-12T23:21:16.490Z,13.18
2022-09-12T23:23:45.194Z,13.15
2022-09-12T23:26:15.007Z,13.13
2022-09-12T23:28:48.402Z,13.13
2022-09-12T23:31:17.344Z,13.11
2022-09-12T23:33:46.188Z,13.08
2022-09-12T23:36:14.776Z,13.05
2022-09-12T23:38:44.279Z,13.01
2022-09-12T23:41:15.833Z,12.96
2022-09-12T23:43:45.748Z,12.90
2022-09-12T23:46:14.631Z,12.84
2022-09-12T23:48:43.839Z,12.77
2022-09-12T23:51:12.632Z,12.71
2022-09-12T23:53:41.562Z,12.67
2022-09-12T23:56:10.003Z,12.62
2022-09-12T23:58:38.588Z,12.59
